Time;durP1;ratioP1;P1;durP2;ratioP2;P2;SDS_P1;SDS_P2;PMS_P1;PMS_P2;Temp;Humidity;BMP_temperature;BMP_pressure;BME280_temperature;BME280_humidity;BME280_pressure;Samples;Min_cycle;Max_cycle;Signal;HPM_P1;HPM_P2
2021/06/30 00:01:53;;;;;;;7.13;2.80;;;16.30;99.90;;;;;;5114262;28;20580;-73
2021/06/30 00:04:19;;;;;;;3.80;2.80;;;16.20;99.90;;;;;;5114303;28;20588;-73
2021/06/30 00:06:46;;;;;;;4.10;2.60;;;16.20;99.90;;;;;;5114363;28;20596;-73
2021/06/30 00:09:15;;;;;;;7.83;2.90;;;16.20;99.90;;;;;;5096131;28;21037;-73
2021/06/30 00:11:41;;;;;;;10.20;3.67;;;16.10;99.90;;;;;;5114380;28;20597;-73
2021/06/30 00:14:09;;;;;;;4.73;3.30;;;16.20;99.90;;;;;;5114210;28;20599;-73
2021/06/30 00:16:36;;;;;;;6.07;3.23;;;16.20;99.90;;;;;;5113410;28;21332;-73
2021/06/30 00:19:06;;;;;;;4.80;2.80;;;16.20;99.90;;;;;;5114506;28;20584;-73
2021/06/30 00:21:32;;;;;;;6.10;3.17;;;16.10;99.90;;;;;;5114159;28;20662;-73
2021/06/30 00:23:59;;;;;;;6.33;3.43;;;16.10;99.90;;;;;;5114133;28;20596;-73
2021/06/30 00:26:25;;;;;;;3.93;3.47;;;16.10;99.90;;;;;;5113796;28;20619;-73
2021/06/30 00:28:52;;;;;;;3.87;3.57;;;16.10;99.90;;;;;;5114033;28;20600;-73
2021/06/30 00:31:19;;;;;;;3.27;3.07;;;16.10;99.90;;;;;;5114052;28;20646;-73
2021/06/30 00:33:45;;;;;;;5.80;3.50;;;16.10;99.90;;;;;;5113602;28;20663;-73
2021/06/30 00:36:12;;;;;;;6.03;3.80;;;16.10;99.90;;;;;;5113504;28;20619;-73
2021/06/30 00:38:38;;;;;;;7.77;3.80;;;16.10;99.90;;;;;;5113876;28;20600;-73
2021/06/30 00:41:05;;;;;;;6.30;4.07;;;16.10;99.90;;;;;;5113166;28;20705;-73
2021/06/30 00:43:32;;;;;;;4.10;3.80;;;16.00;99.90;;;;;;5113866;28;20604;-73
2021/06/30 00:45:58;;;;;;;9.53;3.37;;;16.10;99.90;;;;;;5114149;28;20596;-73
2021/06/30 00:48:25;;;;;;;6.00;4.70;;;16.10;99.90;;;;;;5114002;28;20604;-73
2021/06/30 00:50:51;;;;;;;6.10;3.67;;;16.10;99.90;;;;;;5113794;28;20965;-73
2021/06/30 00:53:18;;;;;;;7.53;3.63;;;16.10;99.90;;;;;;5114034;28;20655;-73
2021/06/30 00:55:50;;;;;;;8.40;4.00;;;16.10;99.90;;;;;;5113150;28;20612;-73
2021/06/30 00:58:17;;;;;;;5.30;3.90;;;16.10;99.90;;;;;;5117539;28;20543;-73
2021/06/30 01:00:43;;;;;;;8.40;4.10;;;16.10;99.90;;;;;;5100152;28;21006;-70
2021/06/30 01:03:09;;;;;;;4.43;4.13;;;15.90;99.90;;;;;;5117310;28;20619;-70
2021/06/30 01:05:36;;;;;;;15.13;4.80;;;15.90;99.90;;;;;;5117291;28;20638;-70
2021/06/30 01:08:04;;;;;;;5.17;4.30;;;15.90;99.90;;;;;;5117738;28;20600;-70
2021/06/30 01:10:30;;;;;;;6.20;3.60;;;15.90;99.90;;;;;;5118300;28;20583;-70
2021/06/30 01:12:56;;;;;;;5.70;3.93;;;15.90;99.90;;;;;;5117481;28;20636;-70
2021/06/30 01:15:23;;;;;;;9.30;4.23;;;15.90;99.90;;;;;;5117760;28;20952;-70
2021/06/30 01:17:52;;;;;;;3.80;3.50;;;15.90;99.90;;;;;;5117441;28;20624;-70
2021/06/30 01:20:19;;;;;;;7.80;3.70;;;15.90;99.90;;;;;;5116777;28;20643;-70
2021/06/30 01:23:24;;;;;;;8.20;3.57;;;15.90;99.90;;;;;;5116823;28;20594;-70
2021/06/30 01:25:51;;;;;;;4.23;3.63;;;16.00;99.90;;;;;;5014295;28;20636;-70
2021/06/30 01:28:18;;;;;;;4.90;3.20;;;16.00;99.90;;;;;;5014925;28;21190;-70
2021/06/30 01:30:47;;;;;;;3.60;3.30;;;15.90;99.90;;;;;;5064188;28;20663;-70
2021/06/30 01:33:14;;;;;;;3.43;2.50;;;16.00;99.90;;;;;;5117118;28;20596;-70
2021/06/30 01:35:41;;;;;;;6.00;3.23;;;16.00;99.90;;;;;;5117330;28;20592;-70
2021/06/30 01:38:07;;;;;;;4.57;3.90;;;15.90;99.90;;;;;;5117326;28;20600;-70
2021/06/30 01:40:34;;;;;;;4.73;3.10;;;15.90;99.90;;;;;;5117128;28;21155;-70
2021/06/30 01:43:02;;;;;;;8.00;3.00;;;15.90;99.90;;;;;;5116330;28;20620;-70
2021/06/30 01:45:29;;;;;;;6.20;2.73;;;15.80;99.90;;;;;;5117054;28;20612;-70
2021/06/30 01:47:56;;;;;;;3.00;2.80;;;15.90;99.90;;;;;;5116968;28;20595;-70
2021/06/30 01:50:22;;;;;;;2.97;2.77;;;15.80;99.90;;;;;;5116907;28;20608;-70
2021/06/30 01:52:48;;;;;;;3.37;3.00;;;15.80;99.90;;;;;;5116824;28;20640;-70
2021/06/30 01:55:15;;;;;;;7.20;2.40;;;15.70;99.90;;;;;;5116418;28;20973;-70
2021/06/30 01:57:44;;;;;;;3.23;2.53;;;15.60;99.90;;;;;;5116515;28;20590;-70
2021/06/30 02:00:12;;;;;;;7.50;2.50;;;15.60;99.90;;;;;;5117113;28;20579;-70
2021/06/30 02:02:40;;;;;;;3.30;2.20;;;15.50;99.90;;;;;;5116592;28;21203;-70
2021/06/30 02:05:18;;;;;;;3.00;2.00;;;15.50;99.90;;;;;;5116686;28;20623;-70
2021/06/30 02:07:47;;;;;;;1.87;1.50;;;15.50;99.90;;;;;;5116271;28;20598;-70
2021/06/30 02:10:15;;;;;;;1.60;1.50;;;15.50;99.90;;;;;;5116646;28;20611;-70
2021/06/30 02:12:42;;;;;;;1.80;1.33;;;15.40;99.90;;;;;;5116635;28;20619;-70
2021/06/30 02:15:19;;;;;;;2.13;1.70;;;15.40;99.90;;;;;;5115543;28;20608;-70
2021/06/30 02:17:46;;;;;;;3.73;1.50;;;15.40;99.90;;;;;;5116046;28;20560;-70
2021/06/30 02:20:14;;;;;;;4.23;1.40;;;15.40;99.90;;;;;;5115621;28;20619;-70
2021/06/30 02:22:41;;;;;;;5.07;1.93;;;15.40;99.90;;;;;;5116211;28;21147;-70
2021/06/30 02:25:12;;;;;;;1.83;1.60;;;15.40;99.90;;;;;;5115487;28;20635;-69
2021/06/30 02:27:40;;;;;;;1.50;1.40;;;15.40;99.90;;;;;;5116302;28;21075;-70
2021/06/30 02:30:18;;;;;;;1.50;1.40;;;15.30;99.90;;;;;;5116310;28;21102;-70
2021/06/30 02:32:45;;;;;;;2.00;1.83;;;15.30;99.90;;;;;;5114897;28;20652;-69
2021/06/30 02:35:15;;;;;;;2.60;1.50;;;15.30;99.90;;;;;;5115048;28;21057;-69
2021/06/30 02:37:41;;;;;;;2.50;1.40;;;15.30;99.90;;;;;;5114745;28;20611;-69
2021/06/30 02:40:11;;;;;;;1.57;1.47;;;15.30;99.90;;;;;;5079665;28;20622;-70
2021/06/30 02:42:38;;;;;;;3.50;1.50;;;15.20;99.90;;;;;;5115044;28;20621;-69
2021/06/30 02:45:08;;;;;;;2.80;1.40;;;15.20;99.90;;;;;;5114718;28;20630;-70
2021/06/30 02:47:35;;;;;;;4.70;1.40;;;15.20;99.90;;;;;;5096030;28;20616;-70
2021/06/30 02:50:04;;;;;;;3.63;1.47;;;15.20;99.90;;;;;;5096348;28;20616;-70
2021/06/30 02:52:30;;;;;;;1.87;1.30;;;15.20;99.90;;;;;;5114533;28;20639;-70
2021/06/30 02:54:56;;;;;;;7.57;1.77;;;15.20;99.90;;;;;;5114397;28;20567;-70
2021/06/30 02:57:23;;;;;;;1.93;1.83;;;15.20;99.90;;;;;;5114408;28;20579;-70
2021/06/30 02:59:49;;;;;;;6.37;1.27;;;15.10;99.90;;;;;;5114401;28;20592;-69
2021/06/30 03:02:15;;;;;;;1.70;1.10;;;15.20;99.90;;;;;;5113985;28;20650;-70
2021/06/30 03:04:42;;;;;;;1.50;1.40;;;15.10;99.90;;;;;;5114286;28;20579;-70
2021/06/30 03:07:08;;;;;;;1.00;0.90;;;15.20;99.90;;;;;;5113776;28;20612;-70
2021/06/30 03:09:34;;;;;;;2.70;1.20;;;15.10;99.90;;;;;;5095359;28;20673;-69
2021/06/30 03:12:02;;;;;;;1.57;1.20;;;15.10;99.90;;;;;;5113714;28;20590;-70
2021/06/30 03:14:29;;;;;;;4.03;1.50;;;15.10;99.90;;;;;;5113741;28;20638;-69
2021/06/30 03:16:56;;;;;;;1.37;1.10;;;15.10;99.90;;;;;;5113717;28;20632;-69
2021/06/30 03:19:22;;;;;;;2.57;1.40;;;15.10;99.90;;;;;;5112976;28;20612;-70
2021/06/30 03:21:49;;;;;;;2.40;1.50;;;15.10;99.90;;;;;;5113975;28;20621;-70
2021/06/30 03:24:16;;;;;;;3.53;1.30;;;15.10;99.90;;;;;;5113968;28;21172;-70
2021/06/30 03:26:42;;;;;;;3.30;1.60;;;15.10;99.90;;;;;;5114031;28;20674;-70
2021/06/30 03:29:08;;;;;;;1.80;1.70;;;15.10;99.90;;;;;;5113855;28;21157;-69
2021/06/30 03:31:35;;;;;;;4.40;1.53;;;15.10;99.90;;;;;;5076329;28;1073766;-70
2021/06/30 03:34:01;;;;;;;2.20;1.67;;;15.10;99.90;;;;;;5114689;28;20607;-69
2021/06/30 03:36:28;;;;;;;3.63;1.63;;;15.10;99.90;;;;;;5114700;28;20611;-70
2021/06/30 03:38:54;;;;;;;4.83;1.40;;;15.00;99.90;;;;;;5114875;28;20969;-69
2021/06/30 03:41:21;;;;;;;4.00;1.40;;;15.00;99.90;;;;;;5114517;28;21166;-70
2021/06/30 03:43:47;;;;;;;2.33;1.63;;;15.00;99.90;;;;;;5114607;28;20604;-70
2021/06/30 03:46:14;;;;;;;4.00;1.70;;;15.00;99.90;;;;;;5114584;28;21129;-69
2021/06/30 03:48:40;;;;;;;2.23;1.40;;;15.00;99.90;;;;;;5114370;28;20624;-69
2021/06/30 03:51:07;;;;;;;5.00;1.70;;;15.00;99.90;;;;;;5114394;28;20596;-69
2021/06/30 03:53:34;;;;;;;1.77;1.67;;;15.00;99.90;;;;;;5114543;28;21204;-70
2021/06/30 03:56:00;;;;;;;3.20;1.97;;;15.00;99.90;;;;;;5114438;28;20640;-70
2021/06/30 03:58:26;;;;;;;3.70;1.57;;;15.00;99.90;;;;;;5114303;28;20963;-70
2021/06/30 04:00:53;;;;;;;2.80;1.87;;;14.90;99.90;;;;;;5114096;28;20621;-69
2021/06/30 04:03:19;;;;;;;2.63;1.53;;;14.90;99.90;;;;;;5114149;28;20599;-70
2021/06/30 04:05:46;;;;;;;2.30;1.10;;;15.00;99.90;;;;;;5114116;28;20599;-69
2021/06/30 04:08:13;;;;;;;4.97;1.20;;;14.90;99.90;;;;;;5114028;28;20620;-69
2021/06/30 04:10:40;;;;;;;1.40;1.30;;;14.90;99.90;;;;;;5114165;28;20607;-69
2021/06/30 04:13:08;;;;;;;2.50;1.30;;;14.90;99.90;;;;;;5113571;28;20976;-69
2021/06/30 04:15:35;;;;;;;1.40;1.30;;;15.00;99.90;;;;;;5113874;28;20627;-70
2021/06/30 04:18:06;;;;;;;1.77;1.30;;;15.00;99.90;;;;;;5113944;28;20607;-70
2021/06/30 04:20:32;;;;;;;1.33;1.10;;;15.00;99.90;;;;;;5113899;28;20585;-69
2021/06/30 04:22:58;;;;;;;2.60;1.27;;;14.90;99.90;;;;;;5113895;28;20661;-68
2021/06/30 04:25:25;;;;;;;1.53;1.10;;;15.00;99.90;;;;;;5114062;28;20620;-69
2021/06/30 04:27:51;;;;;;;0.90;0.90;;;14.90;99.90;;;;;;5113605;28;20612;-69
2021/06/30 04:30:18;;;;;;;2.60;1.17;;;14.90;99.90;;;;;;5113573;28;20593;-69
2021/06/30 04:32:46;;;;;;;1.47;1.07;;;14.90;99.90;;;;;;5113466;28;20611;-69
2021/06/30 04:35:13;;;;;;;1.07;1.00;;;14.90;99.90;;;;;;5113684;28;20584;-69
2021/06/30 04:37:39;;;;;;;2.10;1.40;;;14.90;99.90;;;;;;5113639;28;20592;-70
2021/06/30 04:40:06;;;;;;;3.57;1.13;;;14.90;99.90;;;;;;5113540;28;20665;-70
2021/06/30 04:42:33;;;;;;;4.80;1.20;;;14.90;99.90;;;;;;5113302;28;20596;-70
2021/06/30 04:44:59;;;;;;;2.30;1.13;;;14.90;99.90;;;;;;5095157;28;20616;-70
2021/06/30 04:47:25;;;;;;;1.40;1.20;;;14.80;99.90;;;;;;5113465;28;20599;-70
2021/06/30 04:49:52;;;;;;;2.80;1.10;;;14.90;99.90;;;;;;5113593;28;20932;-70
2021/06/30 04:52:18;;;;;;;1.50;1.40;;;14.90;99.90;;;;;;5113363;28;20622;-70
2021/06/30 04:54:44;;;;;;;1.60;1.30;;;14.90;99.90;;;;;;5095208;28;20986;-70
2021/06/30 04:57:10;;;;;;;1.30;1.20;;;14.90;99.90;;;;;;5113532;28;20608;-70
2021/06/30 04:59:37;;;;;;;1.83;1.53;;;14.90;99.90;;;;;;5113584;28;20604;-70
2021/06/30 05:02:03;;;;;;;1.43;1.33;;;15.00;99.90;;;;;;5095338;28;20575;-70
2021/06/30 05:04:30;;;;;;;1.77;1.10;;;15.00;99.90;;;;;;5113462;28;20608;-70
2021/06/30 05:06:56;;;;;;;1.20;1.20;;;14.90;99.90;;;;;;5113648;28;20620;-70
2021/06/30 05:09:22;;;;;;;1.17;1.07;;;15.00;99.90;;;;;;5113597;28;20604;-70
2021/06/30 05:11:48;;;;;;;1.33;1.30;;;15.00;99.90;;;;;;5113547;28;20620;-70
2021/06/30 05:14:15;;;;;;;1.93;1.17;;;15.10;99.90;;;;;;5113362;28;20594;-70
2021/06/30 05:16:41;;;;;;;1.10;1.00;;;15.30;99.90;;;;;;5112942;28;20612;-70
2021/06/30 05:19:09;;;;;;;0.90;0.90;;;15.30;99.90;;;;;;5112655;28;20690;-70
2021/06/30 05:21:35;;;;;;;2.93;1.00;;;15.20;99.90;;;;;;5113017;28;20617;-70
2021/06/30 05:24:01;;;;;;;2.00;1.00;;;15.30;99.90;;;;;;5113258;28;20621;-70
2021/06/30 05:26:28;;;;;;;1.10;1.00;;;15.30;99.90;;;;;;5095329;28;20600;-70
2021/06/30 05:28:54;;;;;;;2.30;0.87;;;15.20;99.90;;;;;;5113190;28;20616;-70
2021/06/30 05:31:20;;;;;;;1.47;0.90;;;15.10;99.90;;;;;;5115226;28;20644;-70
2021/06/30 05:33:47;;;;;;;4.40;1.20;;;15.20;99.90;;;;;;5113533;28;20870;-70
2021/06/30 05:36:13;;;;;;;1.07;0.97;;;15.20;99.90;;;;;;5113212;28;20647;-70
2021/06/30 05:38:40;;;;;;;8.60;0.90;;;15.20;99.90;;;;;;5113458;28;20922;-70
2021/06/30 05:41:06;;;;;;;1.50;1.20;;;15.20;99.90;;;;;;5113349;28;20950;-70
2021/06/30 05:43:32;;;;;;;1.43;0.93;;;15.20;99.90;;;;;;5080372;28;20631;-70
2021/06/30 05:45:58;;;;;;;1.90;1.00;;;15.20;99.90;;;;;;5117105;28;20611;-70
2021/06/30 05:48:24;;;;;;;1.70;1.60;;;15.10;99.90;;;;;;5098618;28;20725;-70
2021/06/30 05:50:51;;;;;;;2.50;1.30;;;15.10;99.90;;;;;;5116463;28;20616;-69
2021/06/30 05:53:17;;;;;;;2.00;1.30;;;15.30;99.90;;;;;;5116551;28;20647;-70
2021/06/30 05:55:44;;;;;;;2.03;1.30;;;15.30;99.90;;;;;;5116360;28;21151;-69
2021/06/30 05:58:10;;;;;;;2.87;1.30;;;15.40;99.90;;;;;;5116192;28;20613;-70
2021/06/30 06:00:37;;;;;;;5.40;1.40;;;15.40;99.90;;;;;;5116617;28;20584;-70
2021/06/30 06:03:03;;;;;;;1.80;1.00;;;15.40;99.90;;;;;;5116540;28;20603;-69
2021/06/30 06:05:30;;;;;;;5.80;1.40;;;15.50;99.90;;;;;;5098380;28;20616;-69
2021/06/30 06:07:56;;;;;;;2.73;1.17;;;15.60;99.90;;;;;;5116461;28;20691;-69
2021/06/30 06:10:22;;;;;;;4.50;1.53;;;15.50;99.90;;;;;;5098306;28;21117;-69
2021/06/30 06:12:48;;;;;;;2.47;1.90;;;15.60;99.90;;;;;;5116260;28;20571;-69
2021/06/30 06:15:14;;;;;;;2.90;1.30;;;15.60;99.90;;;;;;5116240;28;20600;-70
2021/06/30 06:17:41;;;;;;;1.10;1.10;;;15.50;99.90;;;;;;5097797;28;20620;-70
2021/06/30 06:20:09;;;;;;;1.40;1.30;;;15.50;99.90;;;;;;5115881;28;20681;-70
2021/06/30 06:22:36;;;;;;;4.03;1.40;;;15.50;99.90;;;;;;5080621;28;20620;-69
2021/06/30 06:25:04;;;;;;;16.57;3.20;;;15.40;99.90;;;;;;5116497;28;21145;-70
2021/06/30 06:27:31;;;;;;;37.57;5.50;;;15.40;99.90;;;;;;5115983;28;20607;-70
2021/06/30 06:29:57;;;;;;;5.17;1.70;;;15.40;99.90;;;;;;5115643;28;21117;-70
2021/06/30 06:32:24;;;;;;;56.30;7.37;;;15.50;99.90;;;;;;5115771;28;20667;-70
2021/06/30 06:34:51;;;;;;;27.43;3.93;;;15.50;99.90;;;;;;5116059;28;20602;-70
2021/06/30 06:37:18;;;;;;;2.40;1.60;;;15.50;99.90;;;;;;5115179;28;21177;-70
2021/06/30 06:39:45;;;;;;;3.53;1.60;;;15.50;99.90;;;;;;5115738;28;20599;-70
2021/06/30 06:42:12;;;;;;;56.83;6.90;;;15.60;99.90;;;;;;5115659;28;20592;-70
2021/06/30 06:44:40;;;;;;;8.57;2.33;;;15.60;99.90;;;;;;5115420;28;20624;-69
2021/06/30 06:47:07;;;;;;;1.30;1.20;;;15.80;99.90;;;;;;5115679;28;20620;-70
2021/06/30 06:49:34;;;;;;;27.00;3.90;;;15.80;99.90;;;;;;5097622;28;21165;-69
2021/06/30 06:52:01;;;;;;;2.70;1.63;;;15.80;99.90;;;;;;5115709;28;20604;-69
2021/06/30 06:54:28;;;;;;;3.13;1.10;;;15.80;99.90;;;;;;5113851;28;21271;-70
2021/06/30 06:56:54;;;;;;;1.17;1.07;;;15.70;99.90;;;;;;5115544;28;20604;-70
2021/06/30 06:59:21;;;;;;;2.33;1.30;;;15.70;99.90;;;;;;5115434;28;20944;-70
2021/06/30 07:01:47;;;;;;;2.30;1.10;;;15.90;99.90;;;;;;5115433;28;21147;-70
2021/06/30 07:04:14;;;;;;;2.80;1.03;;;15.90;99.90;;;;;;5115380;28;20610;-70
2021/06/30 07:06:40;;;;;;;1.20;1.10;;;15.80;99.90;;;;;;5097292;28;20612;-70
2021/06/30 07:09:07;;;;;;;1.43;1.10;;;15.80;99.90;;;;;;5115676;28;20680;-70
2021/06/30 07:11:33;;;;;;;1.17;0.97;;;15.80;99.90;;;;;;5115280;28;20596;-70
2021/06/30 07:13:59;;;;;;;1.20;1.10;;;15.90;99.90;;;;;;5115121;28;20636;-70
2021/06/30 07:16:26;;;;;;;0.90;0.90;;;15.80;99.90;;;;;;5115250;28;20592;-70
2021/06/30 07:18:52;;;;;;;1.33;1.23;;;15.90;99.90;;;;;;5115052;28;20947;-70
2021/06/30 07:21:18;;;;;;;5.83;1.10;;;15.90;99.90;;;;;;5115198;28;20935;-70
2021/06/30 07:23:45;;;;;;;1.33;1.23;;;16.10;99.90;;;;;;5115468;28;21187;-70
2021/06/30 07:26:12;;;;;;;1.20;1.00;;;16.10;99.90;;;;;;5115086;28;20608;-70
2021/06/30 07:28:39;;;;;;;3.20;0.90;;;16.30;99.90;;;;;;5104712;28;21019;-70
2021/06/30 07:31:07;;;;;;;1.30;1.20;;;16.20;99.90;;;;;;5109927;28;20644;-70
2021/06/30 07:33:33;;;;;;;1.87;1.37;;;16.20;99.90;;;;;;5114384;28;20648;-70
2021/06/30 07:36:00;;;;;;;1.67;0.83;;;16.20;99.90;;;;;;5100001;28;20648;-73
2021/06/30 07:38:26;;;;;;;3.00;0.90;;;16.00;99.90;;;;;;5114143;28;20627;-68
2021/06/30 07:40:53;;;;;;;1.33;0.90;;;16.20;99.90;;;;;;5113719;28;21143;-68
2021/06/30 07:43:19;;;;;;;1.77;0.90;;;16.30;99.90;;;;;;5114344;28;20632;-68
2021/06/30 07:45:46;;;;;;;1.47;1.00;;;16.30;99.90;;;;;;5107641;27;20708;-68
2021/06/30 07:48:12;;;;;;;6.40;1.00;;;16.20;99.90;;;;;;5111060;28;20612;-69
2021/06/30 07:50:38;;;;;;;1.00;1.00;;;16.00;99.90;;;;;;5114329;28;20665;-70
2021/06/30 07:53:05;;;;;;;0.90;0.90;;;16.00;99.90;;;;;;5113909;28;20619;-69
2021/06/30 07:55:32;;;;;;;1.83;1.00;;;15.80;99.90;;;;;;5113220;28;20739;-69
2021/06/30 07:57:59;;;;;;;2.50;1.10;;;15.80;99.90;;;;;;5075440;28;20617;-69
2021/06/30 08:00:25;;;;;;;1.00;1.00;;;15.70;99.90;;;;;;5112973;28;21196;-69
2021/06/30 08:02:51;;;;;;;1.53;1.30;;;15.60;99.90;;;;;;5113974;28;20761;-69
2021/06/30 08:05:17;;;;;;;2.10;1.20;;;15.60;99.90;;;;;;5113074;27;20638;-70
2021/06/30 08:07:52;;;;;;;1.53;1.20;;;15.80;99.90;;;;;;5102354;28;20616;-70
2021/06/30 08:10:18;;;;;;;5.63;2.70;;;15.60;99.90;;;;;;5113839;28;20624;-70
2021/06/30 08:12:44;;;;;;;1.57;1.47;;;15.40;99.90;;;;;;5113858;28;20587;-69
2021/06/30 08:15:11;;;;;;;11.60;1.50;;;15.50;99.90;;;;;;5095595;28;20663;-69
2021/06/30 08:17:39;;;;;;;3.33;1.63;;;15.40;99.90;;;;;;5113467;28;20711;-69
2021/06/30 08:20:06;;;;;;;1.80;1.40;;;15.30;99.90;;;;;;5114086;28;21147;-69
2021/06/30 08:22:33;;;;;;;2.33;2.10;;;15.30;99.90;;;;;;5112906;28;20615;-69
2021/06/30 08:25:00;;;;;;;2.13;1.80;;;15.20;99.90;;;;;;5113237;28;20613;-69
2021/06/30 08:27:26;;;;;;;1.60;1.30;;;15.30;99.90;;;;;;5113827;28;20608;-69
2021/06/30 08:29:54;;;;;;;2.00;1.70;;;15.10;99.90;;;;;;5096505;28;20937;-69
2021/06/30 08:32:23;;;;;;;2.03;1.17;;;15.00;99.90;;;;;;5107530;28;21179;-69
2021/06/30 08:34:49;;;;;;;3.77;1.57;;;15.00;99.90;;;;;;5097315;28;20656;-69
2021/06/30 08:37:18;;;;;;;3.13;2.43;;;14.90;99.90;;;;;;5108702;28;20616;-69
2021/06/30 08:39:44;;;;;;;6.23;1.73;;;15.00;99.90;;;;;;5091566;28;20724;-70
2021/06/30 08:42:11;;;;;;;2.83;2.00;;;14.80;99.90;;;;;;5107183;28;20596;-69
2021/06/30 08:44:37;;;;;;;2.70;2.00;;;14.90;99.90;;;;;;5100899;28;21008;-69
2021/06/30 08:47:03;;;;;;;6.47;3.37;;;14.90;99.90;;;;;;5117371;28;20692;-70
2021/06/30 08:49:32;;;;;;;2.70;1.90;;;15.00;99.90;;;;;;5113300;28;20647;-69
2021/06/30 08:51:59;;;;;;;4.70;1.90;;;14.90;99.90;;;;;;5113618;28;20622;-69
2021/06/30 08:54:26;;;;;;;2.47;2.27;;;15.00;99.90;;;;;;5113288;28;20662;-69
2021/06/30 08:56:54;;;;;;;4.77;2.20;;;15.00;99.90;;;;;;5113365;28;20587;-69
2021/06/30 08:59:21;;;;;;;1.97;1.87;;;15.00;99.90;;;;;;5113189;28;20596;-69
2021/06/30 09:01:48;;;;;;;2.87;2.60;;;14.90;99.90;;;;;;5094221;28;20597;-70
2021/06/30 09:04:14;;;;;;;2.70;2.20;;;14.90;99.90;;;;;;5113064;28;20625;-70
2021/06/30 09:06:41;;;;;;;7.77;2.90;;;14.70;99.90;;;;;;5111089;28;21148;-70
2021/06/30 09:09:14;;;;;;;7.90;3.30;;;14.80;99.90;;;;;;5099046;28;20699;-69
2021/06/30 09:11:51;;;;;;;3.63;2.07;;;14.90;99.90;;;;;;5108373;28;20577;-69
2021/06/30 09:14:21;;;;;;;2.53;2.43;;;14.90;99.90;;;;;;5112914;28;20598;-70
2021/06/30 09:19:51;;;;;;;2.50;2.40;;;14.80;99.90;;;;;;5117032;28;20581;-70
2021/06/30 09:22:19;;;;;;;4.43;2.70;;;14.70;99.90;;;;;;5098605;28;20620;-70
2021/06/30 09:24:46;;;;;;;3.27;3.07;;;14.70;99.90;;;;;;5098318;28;20624;-69
2021/06/30 09:27:15;;;;;;;2.30;2.20;;;14.80;99.90;;;;;;5116933;28;20615;-69
2021/06/30 09:29:42;;;;;;;3.50;3.30;;;14.70;99.90;;;;;;5116799;28;20612;-69
2021/06/30 09:32:17;;;;;;;2.77;2.57;;;14.80;99.90;;;;;;5116374;28;20656;-70
2021/06/30 09:34:43;;;;;;;6.43;3.10;;;14.80;99.90;;;;;;5108146;28;20613;-70
2021/06/30 09:37:13;;;;;;;2.60;2.50;;;14.90;99.90;;;;;;5110757;28;20917;-69
2021/06/30 09:39:59;;;;;;;4.13;2.77;;;14.80;99.90;;;;;;5116096;28;20632;-69
2021/06/30 09:42:30;;;;;;;3.37;3.17;;;14.80;99.90;;;;;;5116428;28;20676;-69
2021/06/30 09:45:18;;;;;;;3.77;3.57;;;15.00;99.90;;;;;;5116405;28;20726;-69
2021/06/30 09:47:50;;;;;;;3.37;3.07;;;15.20;99.90;;;;;;5081552;28;20615;-69
2021/06/30 09:50:17;;;;;;;3.37;3.17;;;15.10;99.90;;;;;;5098460;28;20612;-69
2021/06/30 09:52:46;;;;;;;3.50;3.30;;;15.10;99.90;;;;;;5116911;28;21052;-70
2021/06/30 09:55:27;;;;;;;15.90;4.27;;;15.20;99.90;;;;;;5116719;28;20662;-69
2021/06/30 09:57:54;;;;;;;2.37;2.27;;;15.30;99.90;;;;;;5116775;28;20596;-69
2021/06/30 10:00:21;;;;;;;3.47;2.60;;;15.30;99.90;;;;;;5116713;28;21044;-69
2021/06/30 10:02:50;;;;;;;4.43;2.37;;;15.30;99.90;;;;;;5116570;28;20596;-69
2021/06/30 10:05:31;;;;;;;9.07;3.50;;;15.40;99.90;;;;;;5116292;28;20627;-69
2021/06/30 10:08:14;;;;;;;3.30;3.00;;;15.50;99.90;;;;;;5105283;28;20637;-69
2021/06/30 10:10:43;;;;;;;1.90;1.80;;;15.60;99.90;;;;;;5116003;28;20608;-69
2021/06/30 10:13:09;;;;;;;3.53;1.97;;;15.60;99.90;;;;;;5116489;28;20608;-69
2021/06/30 10:15:39;;;;;;;1.67;1.57;;;15.80;99.90;;;;;;5116493;28;20963;-69
2021/06/30 10:18:05;;;;;;;3.97;2.00;;;16.00;99.90;;;;;;5097936;28;20624;-69
2021/06/30 10:20:31;;;;;;;35.07;2.17;;;16.30;99.90;;;;;;5116291;28;20599;-69
2021/06/30 10:22:58;;;;;;;2.60;1.73;;;16.40;99.90;;;;;;5115789;28;20985;-69
2021/06/30 10:25:24;;;;;;;2.97;2.17;;;16.30;99.90;;;;;;5115589;28;20931;-69
2021/06/30 10:27:53;;;;;;;1.27;1.17;;;16.60;99.90;;;;;;5116056;28;20612;-69
2021/06/30 10:30:19;;;;;;;2.50;1.50;;;16.70;99.90;;;;;;5115814;28;21185;-69
2021/06/30 10:33:00;;;;;;;1.53;1.43;;;16.50;99.90;;;;;;5115376;28;20640;-70
2021/06/30 10:35:27;;;;;;;5.27;1.60;;;16.50;99.90;;;;;;5102871;28;20669;-70
2021/06/30 10:37:55;;;;;;;1.90;1.80;;;16.40;99.90;;;;;;5115419;28;20624;-70
2021/06/30 10:40:23;;;;;;;1.30;1.20;;;16.40;99.90;;;;;;5115171;28;20973;-70
2021/06/30 10:43:21;;;;;;;2.40;1.70;;;16.30;99.90;;;;;;5114910;28;21165;-69
2021/06/30 10:45:52;;;;;;;2.10;2.00;;;16.00;99.90;;;;;;5051025;28;20641;-69
2021/06/30 10:48:21;;;;;;;2.00;1.90;;;16.00;99.90;;;;;;5103345;28;20624;-69
2021/06/30 10:50:57;;;;;;;2.20;2.03;;;15.90;99.90;;;;;;5114674;28;20624;-69
2021/06/30 10:53:26;;;;;;;5.80;2.27;;;15.90;99.90;;;;;;5114843;28;20616;-69
2021/06/30 10:55:57;;;;;;;1.80;1.70;;;16.00;99.90;;;;;;5114965;28;20652;-69
2021/06/30 10:58:28;;;;;;;8.40;2.83;;;15.90;99.90;;;;;;5115427;28;20588;-68
2021/06/30 11:00:57;;;;;;;3.60;2.30;;;15.70;99.90;;;;;;5115139;28;20580;-69
2021/06/30 11:03:38;;;;;;;2.40;2.13;;;15.50;99.90;;;;;;5114806;28;20644;-67
2021/06/30 11:06:09;;;;;;;46.23;6.67;;;15.50;99.90;;;;;;5115073;28;20624;-67
2021/06/30 11:08:53;;;;;;;26.63;6.00;;;15.60;99.90;;;;;;5115065;28;20617;-67
2021/06/30 11:11:45;;;;;;;2.30;2.20;;;15.60;99.90;;;;;;5109526;28;21231;-67
2021/06/30 11:14:19;;;;;;;2.90;2.70;;;15.80;99.90;;;;;;5108800;28;21017;-67
2021/06/30 11:16:50;;;;;;;26.20;5.20;;;16.10;99.90;;;;;;5101550;28;20612;-69
2021/06/30 11:21:43;;;;;;;3.23;1.67;;;16.40;99.90;;;;;;5098069;28;20617;-68
2021/06/30 11:24:53;;;;;;;2.90;1.90;;;16.70;99.90;;;;;;5114672;28;20969;-68
2021/06/30 11:27:21;;;;;;;2.30;1.70;;;16.90;99.90;;;;;;5114592;28;20577;-69
2021/06/30 11:29:57;;;;;;;3.07;1.93;;;17.40;99.90;;;;;;5114919;28;20591;-68
2021/06/30 11:32:36;;;;;;;8.43;1.70;;;17.60;99.90;;;;;;5101723;28;20651;-68
2021/06/30 11:35:04;;;;;;;2.07;1.40;;;18.10;99.90;;;;;;5113979;28;20742;-68
2021/06/30 11:37:31;;;;;;;14.83;1.90;;;17.80;99.90;;;;;;5114304;28;20614;-69
2021/06/30 11:40:05;;;;;;;2.00;1.90;;;17.70;99.90;;;;;;5113475;28;20622;-68
2021/06/30 11:42:36;;;;;;;1.40;1.17;;;17.70;99.90;;;;;;5101099;28;21011;-68
2021/06/30 11:45:16;;;;;;;2.07;1.27;;;18.20;99.90;;;;;;5113781;28;20622;-68
2021/06/30 11:47:43;;;;;;;2.07;1.20;;;18.40;99.90;;;;;;5083120;28;20616;-68
2021/06/30 11:50:16;;;;;;;1.33;1.17;;;18.60;99.90;;;;;;5114017;28;20616;-68
2021/06/30 11:52:44;;;;;;;1.20;1.10;;;18.50;99.90;;;;;;5100520;28;20591;-68
2021/06/30 11:55:11;;;;;;;1.60;1.50;;;19.40;99.90;;;;;;5113921;28;20652;-68
2021/06/30 11:57:59;;;;;;;3.00;1.10;;;20.20;99.90;;;;;;5114206;28;20661;-68
2021/06/30 12:00:31;;;;;;;1.20;1.10;;;20.20;99.90;;;;;;5098556;28;20659;-68
2021/06/30 12:03:00;;;;;;;1.80;1.37;;;20.60;99.90;;;;;;5095658;28;20583;-68
2021/06/30 12:05:28;;;;;;;1.70;1.33;;;21.10;99.90;;;;;;5113782;28;20616;-68
2021/06/30 12:07:56;;;;;;;2.20;1.37;;;20.80;99.90;;;;;;5113267;28;21184;-68
2021/06/30 12:10:31;;;;;;;1.10;1.00;;;20.40;77.80;;;;;;5113753;28;20609;-67
2021/06/30 12:13:01;;;;;;;1.47;1.10;;;19.90;57.30;;;;;;5113881;28;20951;-67
2021/06/30 12:15:28;;;;;;;1.90;1.80;;;19.00;99.90;;;;;;5113300;28;20743;-68
2021/06/30 12:17:56;;;;;;;1.40;1.30;;;18.80;99.90;;;;;;5113118;28;21085;-68
2021/06/30 12:20:25;;;;;;;1.70;1.27;;;19.00;99.90;;;;;;5095414;28;20617;-68
2021/06/30 12:22:52;;;;;;;1.43;1.30;;;19.30;99.90;;;;;;5113913;28;20983;-69
2021/06/30 12:25:19;;;;;;;1.53;1.43;;;19.30;99.90;;;;;;5113022;28;20616;-68
2021/06/30 12:27:55;;;;;;;4.43;1.40;;;18.90;99.90;;;;;;5113001;28;20620;-68
2021/06/30 12:30:25;;;;;;;1.30;1.20;;;19.10;99.90;;;;;;5112623;28;20616;-68
2021/06/30 12:32:57;;;;;;;1.77;1.10;;;19.30;99.90;;;;;;5095578;28;20714;-68
2021/06/30 12:35:25;;;;;;;1.27;1.13;;;19.40;99.90;;;;;;5094954;28;20709;-69
2021/06/30 12:38:13;;;;;;;1.37;1.10;;;19.10;99.90;;;;;;5112602;28;20619;-67
2021/06/30 12:40:40;;;;;;;1.63;1.53;;;18.90;99.90;;;;;;5094664;28;20632;-67
2021/06/30 12:43:16;;;;;;;1.70;1.60;;;19.30;99.90;;;;;;5113652;28;20588;-68
2021/06/30 12:45:50;;;;;;;1.37;1.27;;;19.10;99.90;;;;;;5113669;28;20638;-69
2021/06/30 12:48:19;;;;;;;1.10;1.10;;;19.40;99.90;;;;;;5113747;28;20619;-68
2021/06/30 12:50:47;;;;;;;3.07;1.40;;;19.30;99.90;;;;;;5095609;28;20608;-68
2021/06/30 12:53:23;;;;;;;1.00;1.00;;;18.90;99.90;;;;;;5099667;28;20617;-68
2021/06/30 12:56:02;;;;;;;1.97;1.00;;;19.10;99.90;;;;;;5099785;28;20655;-68
2021/06/30 12:58:37;;;;;;;1.40;1.30;;;19.00;99.90;;;;;;5117759;28;20616;-68